sensor_id;sensor_type;location;lat;lon;timestamp;P1;durP1;ratioP1;P2;durP2;ratioP2
27533;SDS011;14973;51.460;7.008;2022-11-04T00:01:46;2.38;;;1.50;;
27533;SDS011;14973;51.460;7.008;2022-11-04T00:04:13;4.63;;;2.00;;
27533;SDS011;14973;51.460;7.008;2022-11-04T00:06:40;5.32;;;2.20;;
27533;SDS011;14973;51.460;7.008;2022-11-04T00:09:07;2.63;;;1.80;;
27533;SDS011;14973;51.460;7.008;2022-11-04T00:11:34;3.85;;;1.85;;
27533;SDS011;14973;51.460;7.008;2022-11-04T00:14:19;3.42;;;1.90;;
27533;SDS011;14973;51.460;7.008;2022-11-04T00:16:45;3.08;;;1.65;;
27533;SDS011;14973;51.460;7.008;2022-11-04T00:19:29;2.00;;;1.52;;
27533;SDS011;14973;51.460;7.008;2022-11-04T00:22:17;2.88;;;1.63;;
27533;SDS011;14973;51.460;7.008;2022-11-04T00:25:02;3.05;;;1.88;;
27533;SDS011;14973;51.460;7.008;2022-11-04T00:27:46;3.55;;;1.55;;
27533;SDS011;14973;51.460;7.008;2022-11-04T00:30:30;3.38;;;1.90;;
27533;SDS011;14973;51.460;7.008;2022-11-04T00:32:56;4.50;;;1.80;;
27533;SDS011;14973;51.460;7.008;2022-11-04T00:35:40;2.60;;;1.83;;
27533;SDS011;14973;51.460;7.008;2022-11-04T00:38:11;4.25;;;1.70;;
27533;SDS011;14973;51.460;7.008;2022-11-04T00:40:37;5.35;;;1.38;;
27533;SDS011;14973;51.460;7.008;2022-11-04T00:43:02;3.08;;;1.55;;
27533;SDS011;14973;51.460;7.008;2022-11-04T00:45:28;4.50;;;1.83;;
27533;SDS011;14973;51.460;7.008;2022-11-04T00:47:54;6.80;;;1.90;;
27533;SDS011;14973;51.460;7.008;2022-11-04T00:50:19;3.63;;;1.73;;
27533;SDS011;14973;51.460;7.008;2022-11-04T00:52:45;2.70;;;1.92;;
27533;SDS011;14973;51.460;7.008;2022-11-04T00:55:10;8.35;;;1.88;;
27533;SDS011;14973;51.460;7.008;2022-11-04T00:57:36;3.00;;;1.75;;
27533;SDS011;14973;51.460;7.008;2022-11-04T01:00:02;7.00;;;2.13;;
27533;SDS011;14973;51.460;7.008;2022-11-04T01:02:28;4.30;;;1.70;;
27533;SDS011;14973;51.460;7.008;2022-11-04T01:04:53;5.57;;;2.10;;
27533;SDS011;14973;51.460;7.008;2022-11-04T01:07:19;6.85;;;3.10;;
27533;SDS011;14973;51.460;7.008;2022-11-04T01:09:45;3.45;;;2.10;;
27533;SDS011;14973;51.460;7.008;2022-11-04T01:12:10;4.70;;;2.60;;
27533;SDS011;14973;51.460;7.008;2022-11-04T01:14:36;3.78;;;2.72;;
27533;SDS011;14973;51.460;7.008;2022-11-04T01:17:01;5.28;;;2.60;;
27533;SDS011;14973;51.460;7.008;2022-11-04T01:19:27;4.82;;;2.95;;
27533;SDS011;14973;51.460;7.008;2022-11-04T01:21:52;4.65;;;3.10;;
27533;SDS011;14973;51.460;7.008;2022-11-04T01:24:18;5.93;;;3.55;;
27533;SDS011;14973;51.460;7.008;2022-11-04T01:26:44;6.70;;;3.47;;
27533;SDS011;14973;51.460;7.008;2022-11-04T01:29:10;5.30;;;3.03;;
27533;SDS011;14973;51.460;7.008;2022-11-04T01:31:35;6.82;;;3.47;;
27533;SDS011;14973;51.460;7.008;2022-11-04T01:34:01;6.40;;;4.20;;
27533;SDS011;14973;51.460;7.008;2022-11-04T01:36:27;6.88;;;3.80;;
27533;SDS011;14973;51.460;7.008;2022-11-04T01:38:56;7.78;;;4.18;;
27533;SDS011;14973;51.460;7.008;2022-11-04T01:41:25;5.18;;;3.75;;
27533;SDS011;14973;51.460;7.008;2022-11-04T01:43:54;6.95;;;4.13;;
27533;SDS011;14973;51.460;7.008;2022-11-04T01:46:25;5.53;;;3.83;;
27533;SDS011;14973;51.460;7.008;2022-11-04T01:49:03;7.00;;;4.47;;
27533;SDS011;14973;51.460;7.008;2022-11-04T01:51:34;7.05;;;4.13;;
27533;SDS011;14973;51.460;7.008;2022-11-04T01:54:01;7.97;;;4.07;;
27533;SDS011;14973;51.460;7.008;2022-11-04T01:56:28;6.72;;;3.78;;
27533;SDS011;14973;51.460;7.008;2022-11-04T01:58:56;14.68;;;4.32;;
27533;SDS011;14973;51.460;7.008;2022-11-04T02:01:26;8.10;;;4.50;;
27533;SDS011;14973;51.460;7.008;2022-11-04T02:03:53;11.23;;;5.25;;
27533;SDS011;14973;51.460;7.008;2022-11-04T02:06:42;8.30;;;4.13;;
27533;SDS011;14973;51.460;7.008;2022-11-04T02:09:10;8.10;;;4.68;;
27533;SDS011;14973;51.460;7.008;2022-11-04T02:11:37;9.55;;;4.53;;
27533;SDS011;14973;51.460;7.008;2022-11-04T02:14:21;8.40;;;4.53;;
27533;SDS011;14973;51.460;7.008;2022-11-04T02:16:46;8.77;;;3.80;;
27533;SDS011;14973;51.460;7.008;2022-11-04T02:22:27;11.63;;;4.70;;
27533;SDS011;14973;51.460;7.008;2022-11-04T02:27:58;7.10;;;4.70;;
27533;SDS011;14973;51.460;7.008;2022-11-04T02:31:26;11.80;;;5.05;;
27533;SDS011;14973;51.460;7.008;2022-11-04T02:33:31;10.18;;;5.00;;
27533;SDS011;14973;51.460;7.008;2022-11-04T02:46:31;11.05;;;4.80;;
27533;SDS011;14973;51.460;7.008;2022-11-04T02:49:02;11.95;;;4.40;;
27533;SDS011;14973;51.460;7.008;2022-11-04T02:51:38;12.88;;;4.40;;
27533;SDS011;14973;51.460;7.008;2022-11-04T02:56:44;11.18;;;3.35;;
27533;SDS011;14973;51.460;7.008;2022-11-04T02:59:36;12.30;;;4.80;;
27533;SDS011;14973;51.460;7.008;2022-11-04T03:02:13;11.38;;;3.78;;
27533;SDS011;14973;51.460;7.008;2022-11-04T03:04:44;7.65;;;3.20;;
27533;SDS011;14973;51.460;7.008;2022-11-04T03:07:14;11.65;;;4.20;;
27533;SDS011;14973;51.460;7.008;2022-11-04T03:09:43;10.95;;;3.33;;
27533;SDS011;14973;51.460;7.008;2022-11-04T03:12:12;16.35;;;4.28;;
27533;SDS011;14973;51.460;7.008;2022-11-04T03:14:43;14.80;;;4.03;;
27533;SDS011;14973;51.460;7.008;2022-11-04T03:17:25;11.52;;;2.97;;
27533;SDS011;14973;51.460;7.008;2022-11-04T03:20:06;18.52;;;3.90;;
27533;SDS011;14973;51.460;7.008;2022-11-04T03:22:36;10.10;;;3.08;;
27533;SDS011;14973;51.460;7.008;2022-11-04T03:25:05;12.55;;;3.30;;
27533;SDS011;14973;51.460;7.008;2022-11-04T03:30:18;10.82;;;3.78;;
27533;SDS011;14973;51.460;7.008;2022-11-04T03:33:33;15.43;;;2.78;;
27533;SDS011;14973;51.460;7.008;2022-11-04T03:35:50;11.18;;;3.13;;
27533;SDS011;14973;51.460;7.008;2022-11-04T03:38:16;7.35;;;2.65;;
27533;SDS011;14973;51.460;7.008;2022-11-04T03:40:42;15.80;;;2.33;;
27533;SDS011;14973;51.460;7.008;2022-11-04T03:43:15;15.48;;;2.63;;
27533;SDS011;14973;51.460;7.008;2022-11-04T03:45:45;25.08;;;3.55;;
27533;SDS011;14973;51.460;7.008;2022-11-04T03:48:11;15.65;;;3.10;;
27533;SDS011;14973;51.460;7.008;2022-11-04T03:50:41;19.85;;;3.05;;
27533;SDS011;14973;51.460;7.008;2022-11-04T03:53:08;11.25;;;2.70;;
27533;SDS011;14973;51.460;7.008;2022-11-04T03:55:44;16.90;;;2.97;;
27533;SDS011;14973;51.460;7.008;2022-11-04T03:58:35;16.70;;;2.42;;
27533;SDS011;14973;51.460;7.008;2022-11-04T04:04:23;13.23;;;3.17;;
27533;SDS011;14973;51.460;7.008;2022-11-04T04:06:59;17.45;;;2.88;;
27533;SDS011;14973;51.460;7.008;2022-11-04T04:09:43;14.45;;;2.55;;
27533;SDS011;14973;51.460;7.008;2022-11-04T04:15:03;6.85;;;3.00;;
27533;SDS011;14973;51.460;7.008;2022-11-04T04:20:35;11.23;;;3.13;;
27533;SDS011;14973;51.460;7.008;2022-11-04T04:23:14;12.07;;;2.92;;
27533;SDS011;14973;51.460;7.008;2022-11-04T04:26:02;15.35;;;3.47;;
27533;SDS011;14973;51.460;7.008;2022-11-04T04:28:49;13.60;;;3.45;;
27533;SDS011;14973;51.460;7.008;2022-11-04T04:31:17;14.93;;;3.17;;
27533;SDS011;14973;51.460;7.008;2022-11-04T04:34:04;13.07;;;3.40;;
27533;SDS011;14973;51.460;7.008;2022-11-04T04:36:31;12.80;;;3.33;;
27533;SDS011;14973;51.460;7.008;2022-11-04T04:39:03;20.17;;;3.17;;
27533;SDS011;14973;51.460;7.008;2022-11-04T04:41:49;13.75;;;3.33;;
27533;SDS011;14973;51.460;7.008;2022-11-04T04:44:35;17.25;;;3.50;;
27533;SDS011;14973;51.460;7.008;2022-11-04T04:47:21;20.15;;;3.83;;
27533;SDS011;14973;51.460;7.008;2022-11-04T04:49:49;20.73;;;3.83;;
27533;SDS011;14973;51.460;7.008;2022-11-04T04:52:19;13.10;;;3.50;;
27533;SDS011;14973;51.460;7.008;2022-11-04T04:54:46;18.50;;;4.35;;
27533;SDS011;14973;51.460;7.008;2022-11-04T04:57:11;22.80;;;3.80;;
27533;SDS011;14973;51.460;7.008;2022-11-04T04:59:37;14.20;;;3.60;;
27533;SDS011;14973;51.460;7.008;2022-11-04T05:02:03;18.63;;;4.47;;
27533;SDS011;14973;51.460;7.008;2022-11-04T05:04:28;16.08;;;3.00;;
27533;SDS011;14973;51.460;7.008;2022-11-04T05:06:54;17.55;;;3.80;;
27533;SDS011;14973;51.460;7.008;2022-11-04T05:09:20;18.90;;;4.38;;
27533;SDS011;14973;51.460;7.008;2022-11-04T05:11:45;12.00;;;3.78;;
27533;SDS011;14973;51.460;7.008;2022-11-04T05:14:11;23.45;;;3.47;;
27533;SDS011;14973;51.460;7.008;2022-11-04T05:16:37;16.23;;;3.90;;
27533;SDS011;14973;51.460;7.008;2022-11-04T05:19:02;24.80;;;4.15;;
27533;SDS011;14973;51.460;7.008;2022-11-04T05:21:28;24.52;;;4.28;;
27533;SDS011;14973;51.460;7.008;2022-11-04T05:23:53;26.83;;;4.18;;
27533;SDS011;14973;51.460;7.008;2022-11-04T05:26:19;13.88;;;3.63;;
27533;SDS011;14973;51.460;7.008;2022-11-04T05:28:45;18.58;;;4.45;;
27533;SDS011;14973;51.460;7.008;2022-11-04T05:31:11;10.10;;;3.10;;
27533;SDS011;14973;51.460;7.008;2022-11-04T05:33:36;18.88;;;3.00;;
27533;SDS011;14973;51.460;7.008;2022-11-04T05:36:12;10.63;;;3.58;;
27533;SDS011;14973;51.460;7.008;2022-11-04T05:38:39;11.48;;;3.67;;
27533;SDS011;14973;51.460;7.008;2022-11-04T05:41:07;19.65;;;3.38;;
27533;SDS011;14973;51.460;7.008;2022-11-04T05:43:34;14.68;;;3.03;;
27533;SDS011;14973;51.460;7.008;2022-11-04T05:46:00;18.02;;;3.22;;
27533;SDS011;14973;51.460;7.008;2022-11-04T05:48:26;13.00;;;3.13;;
27533;SDS011;14973;51.460;7.008;2022-11-04T05:50:52;13.00;;;2.63;;
27533;SDS011;14973;51.460;7.008;2022-11-04T05:53:18;15.43;;;3.60;;
27533;SDS011;14973;51.460;7.008;2022-11-04T05:55:44;17.52;;;3.40;;
27533;SDS011;14973;51.460;7.008;2022-11-04T05:58:10;15.07;;;4.97;;
27533;SDS011;14973;51.460;7.008;2022-11-04T06:00:35;16.33;;;3.40;;
27533;SDS011;14973;51.460;7.008;2022-11-04T06:03:01;15.00;;;3.42;;
27533;SDS011;14973;51.460;7.008;2022-11-04T06:05:27;16.38;;;3.13;;
27533;SDS011;14973;51.460;7.008;2022-11-04T06:07:53;14.98;;;3.35;;
27533;SDS011;14973;51.460;7.008;2022-11-04T06:10:19;17.30;;;3.63;;
27533;SDS011;14973;51.460;7.008;2022-11-04T06:12:45;16.63;;;3.20;;
27533;SDS011;14973;51.460;7.008;2022-11-04T06:15:11;26.98;;;4.07;;
27533;SDS011;14973;51.460;7.008;2022-11-04T06:17:37;12.88;;;3.40;;
27533;SDS011;14973;51.460;7.008;2022-11-04T06:20:03;13.75;;;3.30;;
27533;SDS011;14973;51.460;7.008;2022-11-04T06:22:30;12.90;;;3.58;;
27533;SDS011;14973;51.460;7.008;2022-11-04T06:24:56;14.40;;;2.55;;
27533;SDS011;14973;51.460;7.008;2022-11-04T06:27:22;18.13;;;3.05;;
27533;SDS011;14973;51.460;7.008;2022-11-04T06:29:47;24.77;;;5.80;;
27533;SDS011;14973;51.460;7.008;2022-11-04T06:32:14;17.48;;;2.78;;
27533;SDS011;14973;51.460;7.008;2022-11-04T06:34:41;18.95;;;3.08;;
27533;SDS011;14973;51.460;7.008;2022-11-04T06:37:07;13.35;;;3.40;;
27533;SDS011;14973;51.460;7.008;2022-11-04T06:39:34;11.43;;;2.65;;
27533;SDS011;14973;51.460;7.008;2022-11-04T06:41:59;25.48;;;4.00;;
27533;SDS011;14973;51.460;7.008;2022-11-04T06:44:25;16.27;;;3.10;;
27533;SDS011;14973;51.460;7.008;2022-11-04T06:46:51;36.08;;;7.05;;
27533;SDS011;14973;51.460;7.008;2022-11-04T06:49:18;35.22;;;16.60;;
27533;SDS011;14973;51.460;7.008;2022-11-04T06:51:45;16.52;;;3.22;;
27533;SDS011;14973;51.460;7.008;2022-11-04T06:54:11;11.57;;;2.72;;
27533;SDS011;14973;51.460;7.008;2022-11-04T06:56:38;12.10;;;2.28;;
27533;SDS011;14973;51.460;7.008;2022-11-04T06:59:04;15.63;;;2.75;;
27533;SDS011;14973;51.460;7.008;2022-11-04T07:01:31;11.77;;;2.75;;
27533;SDS011;14973;51.460;7.008;2022-11-04T07:03:59;10.55;;;2.88;;
27533;SDS011;14973;51.460;7.008;2022-11-04T07:06:25;10.20;;;2.20;;
27533;SDS011;14973;51.460;7.008;2022-11-04T07:08:54;16.35;;;3.13;;
27533;SDS011;14973;51.460;7.008;2022-11-04T07:11:21;12.18;;;2.92;;
27533;SDS011;14973;51.460;7.008;2022-11-04T07:13:49;19.17;;;3.35;;
27533;SDS011;14973;51.460;7.008;2022-11-04T07:16:15;11.25;;;2.83;;
27533;SDS011;14973;51.460;7.008;2022-11-04T07:18:41;18.77;;;3.40;;
27533;SDS011;14973;51.460;7.008;2022-11-04T07:21:07;9.88;;;2.72;;
27533;SDS011;14973;51.460;7.008;2022-11-04T07:23:33;18.17;;;2.78;;
27533;SDS011;14973;51.460;7.008;2022-11-04T07:25:59;20.35;;;3.33;;
27533;SDS011;14973;51.460;7.008;2022-11-04T07:28:26;19.60;;;3.50;;
27533;SDS011;14973;51.460;7.008;2022-11-04T07:30:55;7.85;;;2.70;;
27533;SDS011;14973;51.460;7.008;2022-11-04T07:33:22;14.40;;;3.72;;
27533;SDS011;14973;51.460;7.008;2022-11-04T07:35:47;12.80;;;3.20;;
27533;SDS011;14973;51.460;7.008;2022-11-04T07:38:13;10.10;;;3.22;;
27533;SDS011;14973;51.460;7.008;2022-11-04T07:40:39;13.40;;;3.08;;
27533;SDS011;14973;51.460;7.008;2022-11-04T07:43:04;15.25;;;3.30;;
27533;SDS011;14973;51.460;7.008;2022-11-04T07:45:30;10.52;;;3.35;;
27533;SDS011;14973;51.460;7.008;2022-11-04T07:47:56;22.30;;;8.68;;
27533;SDS011;14973;51.460;7.008;2022-11-04T07:50:22;14.80;;;3.83;;
27533;SDS011;14973;51.460;7.008;2022-11-04T07:52:48;13.30;;;2.88;;
27533;SDS011;14973;51.460;7.008;2022-11-04T07:55:15;14.93;;;2.92;;
27533;SDS011;14973;51.460;7.008;2022-11-04T07:57:43;13.52;;;2.88;;
27533;SDS011;14973;51.460;7.008;2022-11-04T08:00:09;15.07;;;3.33;;
27533;SDS011;14973;51.460;7.008;2022-11-04T08:02:35;20.52;;;3.33;;
27533;SDS011;14973;51.460;7.008;2022-11-04T08:05:01;18.50;;;3.13;;
27533;SDS011;14973;51.460;7.008;2022-11-04T08:07:27;14.20;;;2.72;;
27533;SDS011;14973;51.460;7.008;2022-11-04T08:09:53;17.98;;;3.20;;
27533;SDS011;14973;51.460;7.008;2022-11-04T08:12:18;8.20;;;2.22;;
27533;SDS011;14973;51.460;7.008;2022-11-04T08:14:46;10.52;;;3.00;;
27533;SDS011;14973;51.460;7.008;2022-11-04T08:17:11;12.13;;;3.47;;
27533;SDS011;14973;51.460;7.008;2022-11-04T08:19:37;17.15;;;3.38;;
27533;SDS011;14973;51.460;7.008;2022-11-04T08:22:03;15.25;;;2.92;;
27533;SDS011;14973;51.460;7.008;2022-11-04T08:24:29;18.27;;;3.95;;
27533;SDS011;14973;51.460;7.008;2022-11-04T08:26:55;26.55;;;3.83;;
27533;SDS011;14973;51.460;7.008;2022-11-04T08:29:20;16.98;;;3.40;;
27533;SDS011;14973;51.460;7.008;2022-11-04T08:31:46;12.75;;;3.25;;
27533;SDS011;14973;51.460;7.008;2022-11-04T08:34:12;11.18;;;2.95;;
27533;SDS011;14973;51.460;7.008;2022-11-04T08:36:38;13.13;;;3.15;;
27533;SDS011;14973;51.460;7.008;2022-11-04T08:39:05;20.40;;;3.45;;
27533;SDS011;14973;51.460;7.008;2022-11-04T08:41:32;17.42;;;3.30;;
27533;SDS011;14973;51.460;7.008;2022-11-04T08:43:59;14.55;;;3.50;;
27533;SDS011;14973;51.460;7.008;2022-11-04T08:46:28;14.73;;;3.63;;
27533;SDS011;14973;51.460;7.008;2022-11-04T08:48:57;15.10;;;3.40;;
27533;SDS011;14973;51.460;7.008;2022-11-04T08:51:23;15.77;;;4.70;;
27533;SDS011;14973;51.460;7.008;2022-11-04T08:53:50;21.35;;;3.92;;
27533;SDS011;14973;51.460;7.008;2022-11-04T08:56:18;41.13;;;16.58;;
27533;SDS011;14973;51.460;7.008;2022-11-04T08:58:45;12.77;;;3.38;;
27533;SDS011;14973;51.460;7.008;2022-11-04T09:01:11;25.48;;;4.03;;
27533;SDS011;14973;51.460;7.008;2022-11-04T09:03:37;23.40;;;4.13;;
27533;SDS011;14973;51.460;7.008;2022-11-04T09:06:06;14.38;;;2.78;;
27533;SDS011;14973;51.460;7.008;2022-11-04T09:08:36;10.90;;;2.80;;
27533;SDS011;14973;51.460;7.008;2022-11-04T09:11:06;12.45;;;2.75;;
27533;SDS011;14973;51.460;7.008;2022-11-04T09:13:34;12.50;;;3.13;;
27533;SDS011;14973;51.460;7.008;2022-11-04T09:16:01;10.00;;;2.78;;
27533;SDS011;14973;51.460;7.008;2022-11-04T09:18:28;18.13;;;6.10;;
27533;SDS011;14973;51.460;7.008;2022-11-04T09:20:54;16.15;;;2.95;;
27533;SDS011;14973;51.460;7.008;2022-11-04T09:23:24;14.23;;;2.72;;
27533;SDS011;14973;51.460;7.008;2022-11-04T09:25:50;14.60;;;2.92;;
27533;SDS011;14973;51.460;7.008;2022-11-04T09:28:16;18.23;;;3.13;;
27533;SDS011;14973;51.460;7.008;2022-11-04T09:30:42;14.00;;;3.03;;
27533;SDS011;14973;51.460;7.008;2022-11-04T09:33:08;15.63;;;3.55;;
27533;SDS011;14973;51.460;7.008;2022-11-04T09:35:34;17.67;;;3.92;;
27533;SDS011;14973;51.460;7.008;2022-11-04T09:38:00;19.45;;;4.15;;
27533;SDS011;14973;51.460;7.008;2022-11-04T09:40:26;10.00;;;2.80;;
27533;SDS011;14973;51.460;7.008;2022-11-04T09:42:59;8.10;;;2.92;;
27533;SDS011;14973;51.460;7.008;2022-11-04T09:45:30;10.63;;;2.47;;
27533;SDS011;14973;51.460;7.008;2022-11-04T09:47:59;9.60;;;2.80;;
27533;SDS011;14973;51.460;7.008;2022-11-04T09:50:31;12.95;;;2.95;;
27533;SDS011;14973;51.460;7.008;2022-11-04T09:53:12;14.18;;;3.15;;
27533;SDS011;14973;51.460;7.008;2022-11-04T09:56:03;9.60;;;2.42;;
27533;SDS011;14973;51.460;7.008;2022-11-04T09:58:33;19.88;;;3.15;;
27533;SDS011;14973;51.460;7.008;2022-11-04T10:21:39;22.83;;;8.75;;
27533;SDS011;14973;51.460;7.008;2022-11-04T10:29:42;9.10;;;2.20;;
27533;SDS011;14973;51.460;7.008;2022-11-04T10:32:20;8.30;;;2.78;;
27533;SDS011;14973;51.460;7.008;2022-11-04T10:34:59;10.68;;;2.05;;
27533;SDS011;14973;51.460;7.008;2022-11-04T10:37:29;10.98;;;2.70;;
27533;SDS011;14973;51.460;7.008;2022-11-04T10:42:42;11.68;;;2.15;;
27533;SDS011;14973;51.460;7.008;2022-11-04T10:45:11;15.25;;;2.20;;
27533;SDS011;14973;51.460;7.008;2022-11-04T10:50:18;12.60;;;2.05;;
27533;SDS011;14973;51.460;7.008;2022-11-04T10:53:12;13.15;;;2.33;;
27533;SDS011;14973;51.460;7.008;2022-11-04T10:58:15;8.13;;;2.03;;
27533;SDS011;14973;51.460;7.008;2022-11-04T11:00:45;12.30;;;2.40;;
27533;SDS011;14973;51.460;7.008;2022-11-04T11:03:27;20.80;;;6.15;;
27533;SDS011;14973;51.460;7.008;2022-11-04T11:08:46;32.78;;;16.80;;
27533;SDS011;14973;51.460;7.008;2022-11-04T11:11:12;12.45;;;2.72;;
27533;SDS011;14973;51.460;7.008;2022-11-04T11:13:41;8.55;;;1.98;;
27533;SDS011;14973;51.460;7.008;2022-11-04T11:18:36;15.23;;;2.58;;
27533;SDS011;14973;51.460;7.008;2022-11-04T11:21:07;10.43;;;2.22;;
27533;SDS011;14973;51.460;7.008;2022-11-04T11:23:48;9.80;;;2.63;;
27533;SDS011;14973;51.460;7.008;2022-11-04T11:26:28;7.05;;;2.25;;
27533;SDS011;14973;51.460;7.008;2022-11-04T11:28:56;11.15;;;2.30;;
27533;SDS011;14973;51.460;7.008;2022-11-04T11:31:33;12.93;;;2.75;;
27533;SDS011;14973;51.460;7.008;2022-11-04T11:34:04;13.50;;;2.17;;
27533;SDS011;14973;51.460;7.008;2022-11-04T11:36:39;10.93;;;2.63;;
27533;SDS011;14973;51.460;7.008;2022-11-04T11:39:14;13.93;;;2.60;;
27533;SDS011;14973;51.460;7.008;2022-11-04T11:46:56;10.98;;;2.28;;
27533;SDS011;14973;51.460;7.008;2022-11-04T11:49:32;10.88;;;3.13;;
27533;SDS011;14973;51.460;7.008;2022-11-04T11:52:16;10.73;;;2.73;;
27533;SDS011;14973;51.460;7.008;2022-11-04T11:54:48;11.25;;;2.10;;
27533;SDS011;14973;51.460;7.008;2022-11-04T11:57:24;12.07;;;2.30;;
27533;SDS011;14973;51.460;7.008;2022-11-04T12:00:11;10.52;;;2.53;;
27533;SDS011;14973;51.460;7.008;2022-11-04T12:05:22;10.50;;;2.58;;
27533;SDS011;14973;51.460;7.008;2022-11-04T12:14:22;12.50;;;2.70;;
27533;SDS011;14973;51.460;7.008;2022-11-04T12:19:36;13.07;;;2.95;;
27533;SDS011;14973;51.460;7.008;2022-11-04T12:22:16;14.88;;;2.45;;
27533;SDS011;14973;51.460;7.008;2022-11-04T12:27:40;19.08;;;7.38;;
27533;SDS011;14973;51.460;7.008;2022-11-04T12:30:18;17.55;;;4.15;;
27533;SDS011;14973;51.460;7.008;2022-11-04T12:44:07;11.05;;;2.58;;
27533;SDS011;14973;51.460;7.008;2022-11-04T12:49:39;9.43;;;2.72;;
27533;SDS011;14973;51.460;7.008;2022-11-04T12:55:00;7.55;;;2.60;;
27533;SDS011;14973;51.460;7.008;2022-11-04T13:00:36;14.98;;;2.95;;
27533;SDS011;14973;51.460;7.008;2022-11-04T13:03:07;14.60;;;2.75;;
27533;SDS011;14973;51.460;7.008;2022-11-04T13:05:53;12.40;;;3.22;;
27533;SDS011;14973;51.460;7.008;2022-11-04T13:08:32;8.10;;;2.33;;
27533;SDS011;14973;51.460;7.008;2022-11-04T13:11:07;9.35;;;2.60;;
27533;SDS011;14973;51.460;7.008;2022-11-04T13:13:49;13.20;;;2.95;;
27533;SDS011;14973;51.460;7.008;2022-11-04T13:16:21;13.70;;;2.90;;
27533;SDS011;14973;51.460;7.008;2022-11-04T13:18:47;15.93;;;3.30;;
27533;SDS011;14973;51.460;7.008;2022-11-04T13:21:15;19.42;;;4.10;;
27533;SDS011;14973;51.460;7.008;2022-11-04T13:23:50;22.65;;;4.50;;
27533;SDS011;14973;51.460;7.008;2022-11-04T13:26:23;20.45;;;4.38;;
27533;SDS011;14973;51.460;7.008;2022-11-04T13:28:55;17.83;;;4.68;;
27533;SDS011;14973;51.460;7.008;2022-11-04T13:36:51;14.65;;;5.82;;
27533;SDS011;14973;51.460;7.008;2022-11-04T13:44:48;23.00;;;7.93;;
27533;SDS011;14973;51.460;7.008;2022-11-04T13:47:26;20.25;;;6.90;;
27533;SDS011;14973;51.460;7.008;2022-11-04T13:49:58;19.98;;;6.78;;
27533;SDS011;14973;51.460;7.008;2022-11-04T13:52:25;22.15;;;7.25;;
27533;SDS011;14973;51.460;7.008;2022-11-04T13:54:57;19.13;;;6.50;;
27533;SDS011;14973;51.460;7.008;2022-11-04T13:58:00;30.17;;;7.82;;
27533;SDS011;14973;51.460;7.008;2022-11-04T14:00:22;23.42;;;7.88;;
27533;SDS011;14973;51.460;7.008;2022-11-04T14:02:52;24.08;;;6.53;;
27533;SDS011;14973;51.460;7.008;2022-11-04T14:16:10;19.00;;;6.65;;
27533;SDS011;14973;51.460;7.008;2022-11-04T14:18:38;18.98;;;6.43;;
27533;SDS011;14973;51.460;7.008;2022-11-04T14:21:13;31.15;;;7.20;;
27533;SDS011;14973;51.460;7.008;2022-11-04T14:23:40;29.85;;;7.78;;
27533;SDS011;14973;51.460;7.008;2022-11-04T14:26:08;21.90;;;7.68;;
27533;SDS011;14973;51.460;7.008;2022-11-04T14:28:36;22.77;;;9.27;;
27533;SDS011;14973;51.460;7.008;2022-11-04T14:31:06;24.27;;;8.30;;
27533;SDS011;14973;51.460;7.008;2022-11-04T14:36:15;28.75;;;10.05;;
27533;SDS011;14973;51.460;7.008;2022-11-04T14:38:54;39.17;;;12.45;;
27533;SDS011;14973;51.460;7.008;2022-11-04T14:41:52;24.70;;;7.55;;
27533;SDS011;14973;51.460;7.008;2022-11-04T14:46:47;19.83;;;6.95;;
27533;SDS011;14973;51.460;7.008;2022-11-04T14:49:39;25.10;;;6.50;;
27533;SDS011;14973;51.460;7.008;2022-11-04T14:55:02;16.98;;;4.55;;
27533;SDS011;14973;51.460;7.008;2022-11-04T14:57:38;13.50;;;4.63;;
27533;SDS011;14973;51.460;7.008;2022-11-04T15:00:31;25.55;;;9.30;;
27533;SDS011;14973;51.460;7.008;2022-11-04T15:03:04;27.38;;;8.85;;
27533;SDS011;14973;51.460;7.008;2022-11-04T15:10:49;19.45;;;4.72;;
27533;SDS011;14973;51.460;7.008;2022-11-04T15:13:18;18.63;;;4.07;;
27533;SDS011;14973;51.460;7.008;2022-11-04T15:15:45;15.25;;;4.65;;
27533;SDS011;14973;51.460;7.008;2022-11-04T15:18:15;16.08;;;3.90;;
27533;SDS011;14973;51.460;7.008;2022-11-04T15:20:47;22.45;;;4.47;;
27533;SDS011;14973;51.460;7.008;2022-11-04T15:23:25;23.73;;;5.25;;
27533;SDS011;14973;51.460;7.008;2022-11-04T15:25:52;20.48;;;4.93;;
27533;SDS011;14973;51.460;7.008;2022-11-04T15:28:20;17.80;;;4.43;;
27533;SDS011;14973;51.460;7.008;2022-11-04T15:31:01;16.60;;;5.07;;
27533;SDS011;14973;51.460;7.008;2022-11-04T15:33:28;24.10;;;7.95;;
27533;SDS011;14973;51.460;7.008;2022-11-04T15:35:56;39.15;;;13.27;;
27533;SDS011;14973;51.460;7.008;2022-11-04T15:38:23;17.80;;;5.93;;
27533;SDS011;14973;51.460;7.008;2022-11-04T15:40:52;17.10;;;4.60;;
27533;SDS011;14973;51.460;7.008;2022-11-04T15:43:18;19.30;;;4.68;;
27533;SDS011;14973;51.460;7.008;2022-11-04T15:48:26;19.58;;;5.78;;
27533;SDS011;14973;51.460;7.008;2022-11-04T15:51:11;14.48;;;5.32;;
27533;SDS011;14973;51.460;7.008;2022-11-04T15:53:48;19.20;;;6.85;;
27533;SDS011;14973;51.460;7.008;2022-11-04T15:56:20;23.35;;;6.40;;
27533;SDS011;14973;51.460;7.008;2022-11-04T15:58:48;21.75;;;6.05;;
27533;SDS011;14973;51.460;7.008;2022-11-04T16:01:16;21.25;;;6.38;;
27533;SDS011;14973;51.460;7.008;2022-11-04T16:03:49;16.98;;;6.22;;
27533;SDS011;14973;51.460;7.008;2022-11-04T16:06:17;13.27;;;6.05;;
27533;SDS011;14973;51.460;7.008;2022-11-04T16:09:02;25.15;;;6.43;;
27533;SDS011;14973;51.460;7.008;2022-11-04T16:14:45;27.85;;;5.57;;
27533;SDS011;14973;51.460;7.008;2022-11-04T16:17:16;25.63;;;5.90;;
27533;SDS011;14973;51.460;7.008;2022-11-04T16:19:46;19.13;;;6.45;;
27533;SDS011;14973;51.460;7.008;2022-11-04T16:22:18;18.25;;;5.20;;
27533;SDS011;14973;51.460;7.008;2022-11-04T16:24:54;21.42;;;7.07;;
27533;SDS011;14973;51.460;7.008;2022-11-04T16:27:22;19.00;;;6.03;;
27533;SDS011;14973;51.460;7.008;2022-11-04T16:29:57;20.73;;;5.88;;
27533;SDS011;14973;51.460;7.008;2022-11-04T16:35:11;20.45;;;6.35;;
27533;SDS011;14973;51.460;7.008;2022-11-04T16:37:42;17.67;;;6.63;;
27533;SDS011;14973;51.460;7.008;2022-11-04T16:40:07;27.20;;;6.80;;
27533;SDS011;14973;51.460;7.008;2022-11-04T16:42:33;22.05;;;7.10;;
27533;SDS011;14973;51.460;7.008;2022-11-04T16:45:00;24.58;;;7.18;;
27533;SDS011;14973;51.460;7.008;2022-11-04T16:47:28;23.80;;;7.32;;
27533;SDS011;14973;51.460;7.008;2022-11-04T16:49:58;26.00;;;7.85;;
27533;SDS011;14973;51.460;7.008;2022-11-04T16:52:25;21.48;;;8.55;;
27533;SDS011;14973;51.460;7.008;2022-11-04T16:54:51;22.00;;;7.47;;
27533;SDS011;14973;51.460;7.008;2022-11-04T16:57:20;21.20;;;7.22;;
27533;SDS011;14973;51.460;7.008;2022-11-04T16:59:46;34.28;;;8.52;;
27533;SDS011;14973;51.460;7.008;2022-11-04T17:02:16;26.58;;;8.02;;
27533;SDS011;14973;51.460;7.008;2022-11-04T17:04:54;24.83;;;8.02;;
27533;SDS011;14973;51.460;7.008;2022-11-04T17:07:20;20.35;;;8.23;;
27533;SDS011;14973;51.460;7.008;2022-11-04T17:09:46;26.55;;;9.73;;
27533;SDS011;14973;51.460;7.008;2022-11-04T17:12:12;24.55;;;9.07;;
27533;SDS011;14973;51.460;7.008;2022-11-04T17:14:38;26.42;;;11.13;;
27533;SDS011;14973;51.460;7.008;2022-11-04T17:17:04;32.40;;;11.32;;
27533;SDS011;14973;51.460;7.008;2022-11-04T17:19:30;27.48;;;11.75;;
27533;SDS011;14973;51.460;7.008;2022-11-04T17:21:56;78.20;;;37.22;;
27533;SDS011;14973;51.460;7.008;2022-11-04T17:24:24;51.30;;;26.10;;
27533;SDS011;14973;51.460;7.008;2022-11-04T17:26:50;41.78;;;17.98;;
27533;SDS011;14973;51.460;7.008;2022-11-04T17:29:15;31.80;;;13.70;;